Time;durP1;ratioP1;P1;durP2;ratioP2;P2;SDS_P1;SDS_P2;PMS_P1;PMS_P2;Temp;Humidity;BMP_temperature;BMP_pressure;BME280_temperature;BME280_humidity;BME280_pressure;Samples;Min_cycle;Max_cycle;Signal;HPM_P1;HPM_P2
2024/04/18 00:01:28;;;;;;;26.92;4.93;;;11.00;87.30;;;;;;5427449;26;19995;-61
2024/04/18 00:03:53;;;;;;;32.60;6.13;;;11.00;87.40;;;;;;5427204;26;20000;-61
2024/04/18 00:06:19;;;;;;;36.00;4.78;;;11.00;87.40;;;;;;5427150;26;19991;-61
2024/04/18 00:08:44;;;;;;;30.77;5.20;;;11.00;87.30;;;;;;5429113;26;19999;-61
2024/04/18 00:11:10;;;;;;;30.25;5.30;;;10.90;87.30;;;;;;5434684;26;20113;-61
2024/04/18 00:13:36;;;;;;;23.38;4.70;;;10.90;87.30;;;;;;5479011;26;20015;-61
2024/04/18 00:16:01;;;;;;;21.05;4.80;;;10.90;87.40;;;;;;5441689;26;20126;-61
2024/04/18 00:18:27;;;;;;;25.83;5.60;;;10.80;87.40;;;;;;5435312;26;20011;-61
2024/04/18 00:20:52;;;;;;;27.17;4.45;;;10.80;87.40;;;;;;5428771;26;20421;-61
2024/04/18 00:23:18;;;;;;;27.50;4.78;;;10.80;87.40;;;;;;5428474;26;20000;-61
2024/04/18 00:25:44;;;;;;;25.48;4.13;;;10.80;87.30;;;;;;5448830;26;20394;-61
2024/04/18 00:28:09;;;;;;;22.23;4.57;;;10.80;87.40;;;;;;5441902;26;20010;-61
2024/04/18 00:30:35;;;;;;;19.95;4.35;;;10.70;87.40;;;;;;5457046;26;19995;-61
2024/04/18 00:33:00;;;;;;;25.05;5.03;;;10.80;87.50;;;;;;5485925;26;20006;-61
2024/04/18 00:35:26;;;;;;;22.63;4.35;;;10.70;87.40;;;;;;5438173;26;20013;-61
2024/04/18 00:37:52;;;;;;;16.13;3.75;;;10.70;87.40;;;;;;5463842;26;20015;-61
2024/04/18 00:40:17;;;;;;;14.32;3.88;;;10.70;87.40;;;;;;5454297;26;19995;-61
2024/04/18 00:42:43;;;;;;;20.33;4.40;;;10.70;87.40;;;;;;5418216;26;20050;-61
2024/04/18 00:45:08;;;;;;;24.02;3.85;;;10.70;87.50;;;;;;5426168;26;20014;-61
2024/04/18 00:47:34;;;;;;;11.80;3.88;;;10.70;87.50;;;;;;5486759;26;20011;-61
2024/04/18 00:50:00;;;;;;;16.08;3.13;;;10.60;87.40;;;;;;5427010;26;20284;-60
2024/04/18 00:52:26;;;;;;;14.60;3.28;;;10.60;87.50;;;;;;5426920;26;20010;-61
2024/04/18 00:54:51;;;;;;;16.98;4.85;;;10.60;87.60;;;;;;5440424;26;20000;-60
2024/04/18 00:57:17;;;;;;;17.92;3.60;;;10.50;87.60;;;;;;5465750;26;20064;-61
2024/04/18 00:59:43;;;;;;;15.75;3.67;;;10.60;87.70;;;;;;5464404;26;20002;-61
2024/04/18 01:02:10;;;;;;;17.35;3.30;;;10.60;87.70;;;;;;5426431;26;19991;-61
2024/04/18 01:04:36;;;;;;;18.65;3.45;;;10.50;87.70;;;;;;5426135;26;19996;-61
2024/04/18 01:07:01;;;;;;;15.77;3.40;;;10.50;87.70;;;;;;5426312;26;19999;-61
2024/04/18 01:09:27;;;;;;;11.68;3.00;;;10.50;87.70;;;;;;5398766;26;19999;-61
2024/04/18 01:11:53;;;;;;;12.73;3.90;;;10.50;87.70;;;;;;5426305;26;20049;-61
2024/04/18 01:14:18;;;;;;;14.82;2.83;;;10.50;87.70;;;;;;5499734;26;19998;-61
2024/04/18 01:16:44;;;;;;;13.45;2.97;;;10.50;87.70;;;;;;5446649;26;19999;-61
2024/04/18 01:19:15;;;;;;;12.05;2.60;;;10.50;87.70;;;;;;5427536;26;20004;-61
2024/04/18 01:21:41;;;;;;;11.95;3.05;;;10.40;87.60;;;;;;5446234;26;20011;-61
2024/04/18 01:24:06;;;;;;;12.40;3.03;;;10.40;87.70;;;;;;5425762;26;20057;-61
2024/04/18 01:26:32;;;;;;;11.77;3.20;;;10.40;87.70;;;;;;5428095;26;19991;-61
2024/04/18 01:28:58;;;;;;;11.43;3.17;;;10.40;87.80;;;;;;5427978;26;20008;-62
2024/04/18 01:31:23;;;;;;;11.57;2.40;;;10.40;87.80;;;;;;5427869;26;20046;-61
2024/04/18 01:33:49;;;;;;;12.98;2.40;;;10.40;87.80;;;;;;5425835;26;20000;-61
2024/04/18 01:36:15;;;;;;;13.82;2.63;;;10.40;87.80;;;;;;5486174;26;20403;-61
2024/04/18 01:38:41;;;;;;;10.35;3.08;;;10.40;87.90;;;;;;5427803;26;20018;-61
2024/04/18 01:41:06;;;;;;;15.38;2.90;;;10.40;87.90;;;;;;5428205;26;19995;-61
2024/04/18 01:43:32;;;;;;;14.02;2.53;;;10.40;88.00;;;;;;5425834;26;20397;-61
2024/04/18 01:45:58;;;;;;;10.23;2.10;;;10.30;87.90;;;;;;5426060;26;20024;-61
2024/04/18 01:48:23;;;;;;;9.13;2.38;;;10.30;88.00;;;;;;5427855;26;20014;-61
2024/04/18 01:50:49;;;;;;;10.90;2.33;;;10.30;88.00;;;;;;5425792;26;20023;-61
2024/04/18 01:53:14;;;;;;;6.97;2.08;;;10.30;88.10;;;;;;5427767;26;19999;-61
2024/04/18 01:55:40;;;;;;;6.50;1.95;;;10.30;88.10;;;;;;5425644;26;20009;-61
2024/04/18 01:58:06;;;;;;;5.57;1.65;;;10.20;88.10;;;;;;5425604;26;20291;-61
2024/04/18 02:00:31;;;;;;;9.95;2.20;;;10.20;88.20;;;;;;5434055;26;19997;-61
2024/04/18 02:02:57;;;;;;;11.27;2.17;;;10.20;88.20;;;;;;5461684;26;20014;-61
2024/04/18 02:05:23;;;;;;;8.00;2.20;;;10.20;88.20;;;;;;5463594;26;20071;-61
2024/04/18 02:07:48;;;;;;;15.43;2.42;;;10.20;88.20;;;;;;5461577;26;20015;-61
2024/04/18 02:10:14;;;;;;;7.50;2.38;;;10.20;88.20;;;;;;5463499;26;19995;-61
2024/04/18 02:12:40;;;;;;;16.25;2.30;;;10.20;88.20;;;;;;5461255;26;20009;-61
2024/04/18 02:15:06;;;;;;;8.43;1.83;;;10.20;88.20;;;;;;5431272;26;19995;-61
2024/04/18 02:17:31;;;;;;;11.82;2.05;;;10.20;88.20;;;;;;5463440;26;20002;-61
2024/04/18 02:19:57;;;;;;;6.80;1.98;;;10.10;88.20;;;;;;5461282;26;20487;-61
2024/04/18 02:22:23;;;;;;;8.15;1.88;;;10.10;88.10;;;;;;5463422;26;20009;-61
2024/04/18 02:25:08;;;;;;;8.00;1.95;;;10.10;88.10;;;;;;5461445;26;19999;-61
2024/04/18 02:27:43;;;;;;;6.07;1.92;;;10.10;88.10;;;;;;5461589;26;20009;-61
2024/04/18 02:30:10;;;;;;;3.38;1.70;;;10.10;88.00;;;;;;5461466;26;20006;-61
2024/04/18 02:32:36;;;;;;;4.32;1.63;;;10.10;88.10;;;;;;5461219;26;20035;-61
2024/04/18 02:35:02;;;;;;;6.53;1.80;;;10.10;88.00;;;;;;5436567;26;21968;-61
2024/04/18 02:37:28;;;;;;;6.13;1.92;;;10.10;88.10;;;;;;5427136;26;19988;-61
2024/04/18 02:39:53;;;;;;;12.68;1.67;;;10.00;88.00;;;;;;5455220;26;20049;-61
2024/04/18 02:42:19;;;;;;;9.50;1.95;;;10.00;88.10;;;;;;5425209;26;20015;-60
2024/04/18 02:44:45;;;;;;;7.88;1.70;;;10.00;88.10;;;;;;5440212;26;19990;-60
2024/04/18 02:47:11;;;;;;;6.95;1.65;;;10.00;88.10;;;;;;5426812;26;20037;-61
2024/04/18 02:49:36;;;;;;;9.57;2.13;;;10.00;88.10;;;;;;5425098;26;19996;-60
2024/04/18 02:52:02;;;;;;;4.38;1.67;;;10.00;88.10;;;;;;5460947;26;19994;-61
2024/04/18 02:54:28;;;;;;;5.22;1.70;;;10.00;88.10;;;;;;5458827;26;19999;-60
2024/04/18 02:56:54;;;;;;;4.20;1.55;;;9.90;88.10;;;;;;5439090;26;19996;-61
2024/04/18 02:59:19;;;;;;;7.47;1.88;;;9.90;88.80;;;;;;5454719;26;20080;-63
2024/04/18 03:01:45;;;;;;;5.68;1.35;;;9.90;88.80;;;;;;5424991;26;20007;-61
2024/04/18 03:04:11;;;;;;;6.97;1.77;;;9.90;88.10;;;;;;5450680;26;19998;-61
2024/04/18 03:06:36;;;;;;;6.85;1.45;;;9.90;88.20;;;;;;5458564;26;19998;-61
2024/04/18 03:09:02;;;;;;;3.92;1.65;;;9.90;88.20;;;;;;5424418;26;20000;-60
2024/04/18 03:11:27;;;;;;;2.15;1.30;;;9.90;88.20;;;;;;5426603;26;20003;-61
2024/04/18 03:13:53;;;;;;;6.40;1.25;;;9.90;88.10;;;;;;5426303;26;20002;-61
2024/04/18 03:16:19;;;;;;;4.55;1.50;;;9.90;88.10;;;;;;5424600;26;20049;-61
2024/04/18 03:18:44;;;;;;;3.53;1.33;;;9.80;88.10;;;;;;5484678;26;20000;-61
2024/04/18 03:21:10;;;;;;;6.30;1.45;;;9.80;88.00;;;;;;5426426;26;19992;-61
2024/04/18 03:23:39;;;;;;;6.25;1.95;;;9.80;88.00;;;;;;5426377;26;20298;-60
2024/04/18 03:26:05;;;;;;;4.45;1.38;;;9.80;88.00;;;;;;5426500;26;20002;-61
2024/04/18 03:28:30;;;;;;;10.85;1.13;;;9.80;88.10;;;;;;5484436;26;20000;-61
2024/04/18 03:30:56;;;;;;;3.83;1.20;;;9.80;88.20;;;;;;5454254;26;20041;-60
2024/04/18 03:33:22;;;;;;;3.70;1.50;;;9.80;88.20;;;;;;5484571;26;20427;-60
2024/04/18 03:35:47;;;;;;;2.17;1.00;;;9.80;88.10;;;;;;5426431;26;19996;-61
2024/04/18 03:38:13;;;;;;;3.30;1.00;;;9.70;88.10;;;;;;5484453;26;19995;-61
2024/04/18 03:40:39;;;;;;;3.67;1.20;;;9.70;88.10;;;;;;5454069;26;20007;-61
2024/04/18 03:43:05;;;;;;;3.60;0.90;;;9.70;88.20;;;;;;5454394;26;19996;-61
2024/04/18 03:45:31;;;;;;;5.40;1.48;;;9.70;88.20;;;;;;5455324;26;19999;-61
2024/04/18 03:47:56;;;;;;;6.13;1.58;;;9.70;88.30;;;;;;5424343;26;20086;-61
2024/04/18 03:50:22;;;;;;;3.28;1.20;;;9.60;88.30;;;;;;5484145;26;20000;-60
2024/04/18 03:52:47;;;;;;;2.22;1.08;;;9.60;88.30;;;;;;5484189;26;20066;-61
2024/04/18 03:55:13;;;;;;;2.92;1.20;;;9.60;88.40;;;;;;5425824;26;20012;-61
2024/04/18 03:57:39;;;;;;;4.40;1.15;;;9.60;88.40;;;;;;5423886;26;20000;-61
2024/04/18 04:00:05;;;;;;;2.80;1.05;;;9.60;88.30;;;;;;5426936;26;20118;-61
2024/04/18 04:02:32;;;;;;;3.28;1.25;;;9.60;88.20;;;;;;5429468;26;20095;-61
2024/04/18 04:04:57;;;;;;;3.45;1.55;;;9.60;88.20;;;;;;5427113;26;20015;-61
2024/04/18 04:07:23;;;;;;;2.50;1.00;;;9.60;88.20;;;;;;5429107;26;20389;-61
2024/04/18 04:09:49;;;;;;;4.53;1.10;;;9.60;88.20;;;;;;5456963;26;20011;-61
2024/04/18 04:12:14;;;;;;;1.25;0.75;;;9.50;88.20;;;;;;5457191;26;20007;-61
2024/04/18 04:14:40;;;;;;;1.88;1.23;;;9.50;88.30;;;;;;5487446;26;20423;-61
2024/04/18 04:17:07;;;;;;;3.28;0.90;;;9.50;88.40;;;;;;5429106;26;20019;-61
2024/04/18 04:19:33;;;;;;;3.03;0.90;;;9.50;88.30;;;;;;5429097;26;20047;-61
2024/04/18 04:21:59;;;;;;;3.65;1.17;;;9.50;88.40;;;;;;5542915;25;20013;-61
2024/04/18 04:24:24;;;;;;;3.30;1.23;;;9.50;88.40;;;;;;5499576;26;19998;-61
2024/04/18 04:26:50;;;;;;;3.45;1.10;;;9.50;88.40;;;;;;5501554;26;19994;-60
2024/04/18 04:29:16;;;;;;;1.70;0.82;;;9.50;88.40;;;;;;5501332;26;20176;-61
2024/04/18 04:31:41;;;;;;;4.07;0.80;;;9.50;88.40;;;;;;5499568;26;19992;-61
2024/04/18 04:34:07;;;;;;;1.92;0.88;;;9.50;88.50;;;;;;5499364;26;20109;-61
2024/04/18 04:36:34;;;;;;;2.67;0.98;;;9.50;88.50;;;;;;5501310;26;19990;-61
2024/04/18 04:38:59;;;;;;;2.70;0.90;;;9.40;88.50;;;;;;5499394;26;20006;-61
2024/04/18 04:41:26;;;;;;;3.13;0.98;;;9.40;88.60;;;;;;5499368;26;20001;-61
2024/04/18 04:43:52;;;;;;;14.65;1.40;;;9.40;88.60;;;;;;5501194;26;19994;-61
2024/04/18 04:46:18;;;;;;;6.13;1.50;;;9.40;88.60;;;;;;5499402;26;19998;-60
2024/04/18 04:48:44;;;;;;;6.70;1.80;;;9.40;88.60;;;;;;5499105;26;19998;-61
2024/04/18 04:51:09;;;;;;;8.55;1.55;;;9.40;88.70;;;;;;5499070;26;19994;-61
2024/04/18 04:53:35;;;;;;;12.23;2.13;;;9.40;88.70;;;;;;5489023;26;20010;-60
2024/04/18 04:56:01;;;;;;;7.95;1.38;;;9.40;88.70;;;;;;5428540;26;19995;-61
2024/04/18 04:58:26;;;;;;;13.20;2.58;;;9.40;88.80;;;;;;5442533;26;20034;-61
2024/04/18 05:00:56;;;;;;;11.00;2.58;;;9.40;88.90;;;;;;5472682;26;19994;-61
2024/04/18 05:03:22;;;;;;;10.27;2.55;;;9.40;89.00;;;;;;5467409;26;20043;-61
2024/04/18 05:05:47;;;;;;;10.15;2.40;;;9.40;89.00;;;;;;5462509;26;19999;-61
2024/04/18 05:08:13;;;;;;;15.82;3.03;;;9.30;89.00;;;;;;5475060;26;20097;-61
2024/04/18 05:10:43;;;;;;;19.73;3.85;;;9.30;89.00;;;;;;5464166;26;20006;-61
2024/04/18 05:13:12;;;;;;;25.45;3.90;;;9.30;89.20;;;;;;5437922;26;20006;-61
2024/04/18 05:15:38;;;;;;;33.22;4.75;;;9.30;89.20;;;;;;5474361;26;20070;-61
2024/04/18 05:18:04;;;;;;;64.20;7.80;;;9.20;89.30;;;;;;5426655;26;20003;-61
2024/04/18 05:20:29;;;;;;;56.22;8.18;;;9.20;89.40;;;;;;5473486;26;20010;-62
2024/04/18 05:22:55;;;;;;;51.78;8.27;;;9.30;89.50;;;;;;5500888;26;19998;-61
2024/04/18 05:25:22;;;;;;;69.75;9.98;;;9.20;89.40;;;;;;5467900;26;20081;-62
2024/04/18 05:28:02;;;;;;;53.72;8.05;;;9.20;89.50;;;;;;5496183;26;19990;-61
2024/04/18 05:33:12;;;;;;;170.90;18.05;;;9.10;89.60;;;;;;5447230;26;20029;-61
2024/04/18 05:35:38;;;;;;;119.60;13.80;;;9.10;89.60;;;;;;5461501;26;20026;-62
2024/04/18 05:38:03;;;;;;;88.80;13.35;;;9.10;89.80;;;;;;5462111;26;20032;-62
2024/04/18 05:40:29;;;;;;;152.20;17.02;;;9.10;90.00;;;;;;5438248;26;20003;-61
2024/04/18 05:42:54;;;;;;;132.23;16.70;;;9.10;90.00;;;;;;5496476;26;20390;-61
2024/04/18 05:45:20;;;;;;;126.35;14.52;;;9.10;90.10;;;;;;5498385;26;20047;-62
2024/04/18 05:47:46;;;;;;;111.07;15.77;;;9.00;90.10;;;;;;5467957;26;19990;-62
2024/04/18 05:50:12;;;;;;;93.90;13.48;;;9.00;90.10;;;;;;5485631;26;20008;-62
2024/04/18 05:52:37;;;;;;;104.63;12.93;;;9.00;90.10;;;;;;5461628;26;20003;-62
2024/04/18 05:55:03;;;;;;;127.55;14.95;;;8.90;90.10;;;;;;5425615;26;20041;-61
2024/04/18 05:57:29;;;;;;;89.53;11.60;;;8.90;90.10;;;;;;5486290;26;19987;-62
2024/04/18 05:59:54;;;;;;;96.15;12.73;;;8.90;90.10;;;;;;5452138;26;20125;-62
2024/04/18 06:02:21;;;;;;;109.18;12.88;;;8.90;90.10;;;;;;5463529;26;19995;-63
2024/04/18 06:04:46;;;;;;;97.93;13.43;;;8.80;90.10;;;;;;5461639;26;19995;-63
2024/04/18 06:07:12;;;;;;;78.97;10.52;;;8.80;90.10;;;;;;5461519;26;20351;-63
2024/04/18 06:09:37;;;;;;;68.28;10.02;;;8.80;90.10;;;;;;5460311;26;20006;-63
2024/04/18 06:12:03;;;;;;;61.72;10.52;;;8.70;90.10;;;;;;5486624;26;20002;-63
2024/04/18 06:14:29;;;;;;;55.80;9.55;;;8.70;90.20;;;;;;5497933;26;20014;-64
2024/04/18 06:16:54;;;;;;;104.25;10.73;;;8.70;90.20;;;;;;5497454;26;20013;-64
2024/04/18 06:19:20;;;;;;;79.72;11.43;;;8.60;90.20;;;;;;5496271;26;20313;-64
2024/04/18 06:21:46;;;;;;;73.65;9.38;;;8.60;90.20;;;;;;5482520;26;20378;-64
2024/04/18 06:24:11;;;;;;;78.03;10.57;;;8.60;90.10;;;;;;5461407;26;20025;-64
2024/04/18 06:26:37;;;;;;;48.75;8.93;;;8.60;90.10;;;;;;5461410;26;19998;-65
2024/04/18 06:29:02;;;;;;;51.20;8.90;;;8.60;90.10;;;;;;5463113;26;20461;-65
2024/04/18 06:31:28;;;;;;;57.88;8.77;;;8.60;90.10;;;;;;5493467;26;19994;-65
2024/04/18 06:33:54;;;;;;;60.47;8.63;;;8.50;90.10;;;;;;5498023;26;19994;-65
2024/04/18 06:36:19;;;;;;;53.35;8.45;;;8.60;90.20;;;;;;5495452;26;20013;-64
2024/04/18 06:38:45;;;;;;;45.15;7.60;;;8.60;90.10;;;;;;5487724;26;20704;-65
2024/04/18 06:41:10;;;;;;;47.90;7.40;;;8.50;90.00;;;;;;5471395;26;20017;-65
2024/04/18 06:43:36;;;;;;;53.60;8.65;;;8.60;90.00;;;;;;5463917;26;20117;-64
2024/04/18 06:46:02;;;;;;;48.10;7.22;;;8.60;90.00;;;;;;5432290;26;20011;-64
2024/04/18 06:48:27;;;;;;;38.50;6.85;;;8.60;90.00;;;;;;5448276;26;20010;-65
2024/04/18 06:50:53;;;;;;;46.53;7.63;;;8.50;90.00;;;;;;5463049;26;19994;-64
2024/04/18 06:53:19;;;;;;;51.75;6.53;;;8.50;90.00;;;;;;5496433;26;19998;-64
2024/04/18 06:55:44;;;;;;;48.22;7.00;;;8.60;89.90;;;;;;5448532;26;20080;-65
2024/04/18 06:58:10;;;;;;;34.25;6.45;;;8.50;89.90;;;;;;5438388;26;20012;-64
2024/04/18 07:00:37;;;;;;;40.55;6.90;;;8.60;90.00;;;;;;5446936;26;19995;-63
2024/04/18 07:03:07;;;;;;;47.45;7.10;;;8.50;90.20;;;;;;5467266;26;19986;-64
2024/04/18 07:05:33;;;;;;;81.15;10.25;;;8.50;89.90;;;;;;5475924;26;20095;-63
2024/04/18 07:07:58;;;;;;;63.22;9.40;;;8.50;90.00;;;;;;5460375;26;20002;-64
2024/04/18 07:10:24;;;;;;;70.45;10.70;;;8.50;90.00;;;;;;5459896;26;20009;-63
2024/04/18 07:12:49;;;;;;;61.80;9.70;;;8.40;90.10;;;;;;5453202;26;20011;-63
2024/04/18 07:15:15;;;;;;;90.40;10.35;;;8.40;90.20;;;;;;5457357;26;20005;-63
2024/04/18 07:17:44;;;;;;;71.40;10.70;;;8.30;90.20;;;;;;5454287;26;20030;-63
2024/04/18 07:20:10;;;;;;;73.97;10.50;;;8.30;90.30;;;;;;5460294;26;20000;-64
2024/04/18 07:22:37;;;;;;;76.82;12.15;;;8.40;90.30;;;;;;5511132;26;20014;-63
2024/04/18 07:25:04;;;;;;;77.90;9.85;;;8.30;90.30;;;;;;5474658;26;20017;-63
2024/04/18 07:27:30;;;;;;;63.70;10.60;;;8.30;90.30;;;;;;5463410;26;20080;-64
2024/04/18 07:29:55;;;;;;;55.88;9.25;;;8.30;90.30;;;;;;5461190;26;20007;-64
2024/04/18 07:32:21;;;;;;;74.60;10.02;;;8.30;90.30;;;;;;5471821;26;20040;-64
2024/04/18 07:34:47;;;;;;;67.35;10.18;;;8.30;90.30;;;;;;5467639;26;20384;-64
2024/04/18 07:37:13;;;;;;;61.40;8.82;;;8.30;90.30;;;;;;5457300;26;19999;-64
2024/04/18 07:39:39;;;;;;;66.75;8.13;;;8.20;90.30;;;;;;5460549;26;19996;-64
2024/04/18 07:42:05;;;;;;;55.55;8.35;;;8.30;90.40;;;;;;5466070;26;20430;-64
2024/04/18 07:44:31;;;;;;;60.78;9.35;;;8.30;90.40;;;;;;5462667;26;20006;-64
2024/04/18 07:46:57;;;;;;;63.83;9.40;;;8.20;90.30;;;;;;5397627;26;20080;-64
2024/04/18 07:49:23;;;;;;;62.15;7.80;;;8.20;90.40;;;;;;5463669;26;20006;-66
2024/04/18 07:51:48;;;;;;;64.20;6.90;;;8.20;90.40;;;;;;5470758;26;20051;-65
2024/04/18 07:54:15;;;;;;;59.85;8.55;;;8.20;90.40;;;;;;5462223;26;20009;-66
2024/04/18 07:56:41;;;;;;;56.88;8.27;;;8.20;90.50;;;;;;5428600;26;19999;-66
2024/04/18 07:59:07;;;;;;;39.53;6.82;;;8.20;90.50;;;;;;5405891;26;20022;-66
2024/04/18 08:01:35;;;;;;;51.03;8.60;;;8.20;90.50;;;;;;5476838;26;20014;-67
2024/04/18 08:04:01;;;;;;;57.00;7.95;;;8.20;90.50;;;;;;5453672;26;20126;-67
2024/04/18 08:06:27;;;;;;;54.13;10.43;;;8.20;90.50;;;;;;5438307;26;19996;-67
2024/04/18 08:08:52;;;;;;;56.08;7.05;;;8.10;90.50;;;;;;5426919;26;20002;-67
2024/04/18 08:11:18;;;;;;;47.90;6.35;;;8.10;90.60;;;;;;5459121;26;19998;-67
2024/04/18 08:13:44;;;;;;;60.30;7.72;;;8.10;90.60;;;;;;5457161;26;20014;-66
2024/04/18 08:16:09;;;;;;;58.88;8.55;;;8.10;90.70;;;;;;5428678;26;20003;-66
2024/04/18 08:18:35;;;;;;;53.45;6.88;;;8.10;90.70;;;;;;5426459;26;20004;-66
2024/04/18 08:21:01;;;;;;;57.47;7.05;;;8.10;90.70;;;;;;5442604;26;19999;-65
2024/04/18 08:23:26;;;;;;;56.83;7.43;;;8.10;90.70;;;;;;5456585;26;20015;-65
2024/04/18 08:25:52;;;;;;;55.60;6.90;;;8.10;90.70;;;;;;5464219;26;19998;-65
2024/04/18 08:28:18;;;;;;;43.80;7.38;;;8.10;90.70;;;;;;5432794;26;19991;-64
2024/04/18 08:30:44;;;;;;;63.92;8.15;;;8.10;90.70;;;;;;5486727;26;20026;-64
2024/04/18 08:33:09;;;;;;;134.02;12.90;;;8.10;90.70;;;;;;5483322;26;20004;-65
2024/04/18 08:35:35;;;;;;;95.18;10.13;;;8.20;90.70;;;;;;5410541;26;20428;-64
2024/04/18 08:38:01;;;;;;;91.00;11.90;;;8.20;90.60;;;;;;5464266;26;20015;-64
2024/04/18 08:40:27;;;;;;;398.55;36.47;;;8.20;90.70;;;;;;5440791;26;20002;-64
2024/04/18 08:42:53;;;;;;;103.35;10.95;;;8.20;90.80;;;;;;5484467;26;19998;-63
2024/04/18 08:45:22;;;;;;;91.10;11.32;;;8.20;90.80;;;;;;5460285;26;20010;-62
2024/04/18 08:47:48;;;;;;;112.18;11.27;;;8.20;90.80;;;;;;5431046;26;20009;-62
2024/04/18 08:50:13;;;;;;;95.50;9.90;;;8.30;90.70;;;;;;5430378;26;19991;-62
2024/04/18 08:52:39;;;;;;;88.45;10.68;;;8.20;90.70;;;;;;5469423;26;20099;-62
2024/04/18 08:55:05;;;;;;;74.72;10.63;;;8.30;90.70;;;;;;5443052;26;20441;-62
2024/04/18 08:57:31;;;;;;;84.10;10.20;;;8.30;90.70;;;;;;5442653;26;20003;-62
2024/04/18 09:00:01;;;;;;;74.28;10.82;;;8.30;90.70;;;;;;5426965;26;19991;-62
2024/04/18 09:02:26;;;;;;;115.35;11.50;;;8.30;90.60;;;;;;5479124;26;20047;-61
2024/04/18 09:04:52;;;;;;;96.00;10.63;;;8.30;90.90;;;;;;5459870;26;19995;-61
2024/04/18 09:07:18;;;;;;;98.60;13.68;;;8.30;90.90;;;;;;5444400;26;20016;-61
2024/04/18 09:09:44;;;;;;;106.05;12.57;;;8.40;91.20;;;;;;5449599;26;20010;-61
2024/04/18 09:12:10;;;;;;;96.65;12.35;;;8.40;90.90;;;;;;5467718;26;20070;-61
2024/04/18 09:14:36;;;;;;;92.10;12.95;;;8.40;91.00;;;;;;5445288;26;20010;-61
2024/04/18 09:17:10;;;;;;;105.40;13.15;;;8.40;90.90;;;;;;5454175;26;20007;-60
2024/04/18 09:19:36;;;;;;;116.60;13.98;;;8.40;90.90;;;;;;5455139;26;19998;-61
2024/04/18 09:22:02;;;;;;;105.43;13.10;;;8.40;90.90;;;;;;5467599;26;20070;-61
2024/04/18 09:24:28;;;;;;;125.30;15.65;;;8.40;90.90;;;;;;5395755;26;20011;-61
2024/04/18 09:26:54;;;;;;;96.50;13.18;;;8.50;91.00;;;;;;5445801;26;20009;-61
2024/04/18 09:29:21;;;;;;;80.32;11.38;;;8.50;91.00;;;;;;5440007;26;20049;-61
2024/04/18 09:31:46;;;;;;;116.40;13.75;;;8.50;90.90;;;;;;5467476;26;20117;-61
2024/04/18 09:34:14;;;;;;;90.40;12.00;;;8.50;90.80;;;;;;5426210;26;20052;-61
2024/04/18 09:36:39;;;;;;;80.25;10.60;;;8.60;90.90;;;;;;5430720;26;19998;-61
2024/04/18 09:39:05;;;;;;;86.35;11.88;;;8.60;90.90;;;;;;5384583;26;20109;-61
2024/04/18 09:41:33;;;;;;;115.38;14.20;;;8.60;90.80;;;;;;5432535;26;20101;-61
2024/04/18 09:44:15;;;;;;;113.47;13.52;;;8.60;90.90;;;;;;5484637;26;20090;-61
2024/04/18 09:46:41;;;;;;;103.07;13.40;;;8.60;91.00;;;;;;5438144;26;20074;-60
2024/04/18 09:49:07;;;;;;;106.38;13.57;;;8.60;90.90;;;;;;5474937;26;20022;-61
2024/04/18 09:51:33;;;;;;;81.72;13.10;;;8.70;90.90;;;;;;5498113;26;20018;-60
2024/04/18 09:53:59;;;;;;;81.03;11.35;;;8.70;90.90;;;;;;5433229;26;20044;-60
2024/04/18 09:56:25;;;;;;;79.40;10.82;;;8.60;90.90;;;;;;5457863;26;19999;-60
2024/04/18 09:58:51;;;;;;;86.55;11.63;;;8.80;90.90;;;;;;5477610;26;20003;-60
2024/04/18 10:01:18;;;;;;;71.00;9.70;;;8.80;90.90;;;;;;5450150;26;20084;-60
2024/04/18 10:03:44;;;;;;;78.10;10.20;;;8.80;90.90;;;;;;5446383;26;20003;-61
2024/04/18 10:06:10;;;;;;;61.80;8.82;;;8.80;90.90;;;;;;5451372;26;20011;-60
2024/04/18 10:08:40;;;;;;;67.40;8.85;;;8.90;91.00;;;;;;5456428;26;20049;-60
2024/04/18 10:11:06;;;;;;;62.15;8.68;;;8.90;91.10;;;;;;5430481;26;20073;-60
2024/04/18 10:13:32;;;;;;;63.53;9.10;;;8.90;91.10;;;;;;5437338;26;19998;-60
2024/04/18 10:16:11;;;;;;;51.25;8.18;;;9.00;91.20;;;;;;5415032;26;20000;-60
2024/04/18 10:18:37;;;;;;;58.85;8.52;;;9.00;91.30;;;;;;5423498;26;20041;-60
2024/04/18 10:21:21;;;;;;;42.35;6.90;;;9.00;91.30;;;;;;5439519;26;20032;-60
2024/04/18 10:23:47;;;;;;;58.67;7.53;;;9.00;91.40;;;;;;5460775;26;19995;-60
2024/04/18 10:26:14;;;;;;;62.30;8.80;;;9.00;91.50;;;;;;5478974;26;20134;-60
2024/04/18 10:28:41;;;;;;;76.05;9.23;;;9.10;91.60;;;;;;5400725;26;20023;-60
2024/04/18 10:31:06;;;;;;;85.03;8.95;;;9.10;91.60;;;;;;5466755;26;20009;-60
2024/04/18 10:33:35;;;;;;;70.32;8.80;;;9.10;91.50;;;;;;5459651;26;20006;-61
2024/04/18 10:36:01;;;;;;;57.00;7.43;;;9.20;91.50;;;;;;5470492;26;20120;-60
2024/04/18 10:38:27;;;;;;;62.70;7.90;;;9.20;91.50;;;;;;5442913;26;19999;-60
2024/04/18 10:41:02;;;;;;;81.07;9.45;;;9.20;91.50;;;;;;5431037;26;20031;-60
2024/04/18 10:43:28;;;;;;;62.60;8.18;;;9.20;91.50;;;;;;5453709;26;20011;-60
2024/04/18 10:45:55;;;;;;;87.75;7.97;;;9.20;91.50;;;;;;5461947;26;20056;-60
2024/04/18 10:48:21;;;;;;;71.78;9.45;;;9.20;91.40;;;;;;5456632;26;20006;-60
2024/04/18 10:50:49;;;;;;;73.65;9.52;;;9.30;91.50;;;;;;5460212;26;20065;-60
2024/04/18 10:53:15;;;;;;;74.63;9.48;;;9.30;91.50;;;;;;5452447;26;19995;-60
2024/04/18 10:55:40;;;;;;;72.05;9.75;;;9.30;91.50;;;;;;5422884;26;20011;-60
2024/04/18 10:58:06;;;;;;;70.05;10.77;;;9.30;91.50;;;;;;5460115;26;19998;-60
2024/04/18 11:00:32;;;;;;;104.78;11.32;;;9.30;91.50;;;;;;5456272;26;20074;-60
2024/04/18 11:02:57;;;;;;;294.98;27.73;;;9.30;91.50;;;;;;5458559;26;19999;-60
2024/04/18 11:05:23;;;;;;;471.83;48.05;;;9.30;91.60;;;;;;5424388;26;20047;-60
2024/04/18 11:07:55;;;;;;;293.95;28.90;;;9.40;91.60;;;;;;5456642;26;19995;-60
2024/04/18 11:10:25;;;;;;;152.00;16.15;;;9.30;91.60;;;;;;5449443;26;20103;-60
2024/04/18 11:12:50;;;;;;;137.00;14.18;;;9.40;91.70;;;;;;5418868;26;20080;-59
2024/04/18 11:15:16;;;;;;;155.27;15.60;;;9.40;91.60;;;;;;5452355;26;20423;-60
2024/04/18 11:17:42;;;;;;;104.07;11.32;;;9.40;91.60;;;;;;5446329;26;20022;-60
2024/04/18 11:20:11;;;;;;;103.15;12.40;;;9.50;91.60;;;;;;5449058;26;20038;-60
2024/04/18 11:22:40;;;;;;;112.07;11.90;;;9.50;91.50;;;;;;5461340;26;19995;-60
2024/04/18 11:25:09;;;;;;;107.80;12.52;;;9.50;91.50;;;;;;5396234;26;19991;-60
2024/04/18 11:27:35;;;;;;;119.82;13.73;;;9.50;91.50;;;;;;5451229;26;19998;-60
2024/04/18 11:30:02;;;;;;;97.60;13.43;;;9.50;91.60;;;;;;5435326;26;20423;-60
2024/04/18 11:32:28;;;;;;;140.25;13.30;;;9.60;91.50;;;;;;5433664;26;19995;-60
2024/04/18 11:34:53;;;;;;;118.53;13.43;;;9.50;91.50;;;;;;5428301;26;20083;-60
2024/04/18 11:37:19;;;;;;;100.45;11.88;;;9.60;91.50;;;;;;5398609;26;20095;-60
2024/04/18 11:39:45;;;;;;;106.15;11.02;;;9.60;91.50;;;;;;5460844;26;19995;-60
2024/04/18 11:42:10;;;;;;;100.45;12.52;;;9.60;91.40;;;;;;5458335;26;20003;-60
2024/04/18 11:44:36;;;;;;;91.93;11.15;;;9.60;91.40;;;;;;5455678;26;19999;-60
2024/04/18 11:47:02;;;;;;;94.70;10.55;;;9.60;91.40;;;;;;5457709;26;19999;-60
2024/04/18 11:49:27;;;;;;;85.28;11.90;;;9.60;91.40;;;;;;5437482;26;19990;-60
2024/04/18 11:51:53;;;;;;;101.93;11.73;;;9.60;91.30;;;;;;5456265;26;20026;-60
2024/04/18 11:54:18;;;;;;;67.78;11.27;;;9.60;91.30;;;;;;5482198;26;20022;-60
2024/04/18 11:56:45;;;;;;;80.05;11.93;;;9.70;91.20;;;;;;5462715;26;20758;-60
2024/04/18 11:59:11;;;;;;;100.28;11.43;;;9.70;91.20;;;;;;5463126;26;20015;-60
2024/04/18 12:01:37;;;;;;;98.15;12.15;;;9.70;91.20;;;;;;5442546;26;20009;-60
2024/04/18 12:04:02;;;;;;;84.72;11.68;;;9.70;91.10;;;;;;5445948;26;20018;-60
2024/04/18 12:06:28;;;;;;;95.82;11.60;;;9.80;91.00;;;;;;5457823;26;19995;-60
2024/04/18 12:08:54;;;;;;;78.95;10.85;;;9.80;91.00;;;;;;5448513;26;20054;-60
2024/04/18 12:11:19;;;;;;;101.43;11.95;;;9.90;91.00;;;;;;5446582;26;20500;-60
2024/04/18 12:13:46;;;;;;;116.28;11.48;;;9.90;91.00;;;;;;5452302;26;20009;-60
2024/04/18 12:16:12;;;;;;;71.18;9.85;;;9.90;90.90;;;;;;5468826;26;19998;-60
2024/04/18 12:18:37;;;;;;;98.70;10.38;;;10.00;90.90;;;;;;5469344;26;20359;-60
2024/04/18 12:21:03;;;;;;;82.97;10.73;;;10.00;90.90;;;;;;5465595;26;20007;-60
2024/04/18 12:23:32;;;;;;;75.30;9.25;;;10.00;90.90;;;;;;5472767;26;20002;-60
2024/04/18 12:25:58;;;;;;;87.18;11.15;;;10.10;90.90;;;;;;5474228;26;20016;-60
2024/04/18 12:28:23;;;;;;;137.07;13.40;;;10.10;90.80;;;;;;5439574;26;20329;-60
2024/04/18 12:30:49;;;;;;;104.85;11.73;;;10.20;91.20;;;;;;5404766;26;20056;-60
2024/04/18 12:33:15;;;;;;;98.38;13.02;;;10.20;90.90;;;;;;5460153;26;20508;-60
2024/04/18 12:35:40;;;;;;;102.10;12.90;;;10.20;90.90;;;;;;5471494;26;20404;-60
2024/04/18 12:38:06;;;;;;;124.50;15.10;;;10.30;91.00;;;;;;5436236;26;20011;-60